createdAt,value
2019-06-15T00:01:23.689Z,27.00
2019-06-15T00:03:53.217Z,27.00
2019-06-15T00:08:52.101Z,27.10
2019-06-15T00:11:53.888Z,27.30
2019-06-15T00:14:35.775Z,27.10
2019-06-15T00:17:05.610Z,27.20
2019-06-15T00:19:35.258Z,27.10
2019-06-15T00:22:05.221Z,27.30
2019-06-15T00:24:35.713Z,29.60
2019-06-15T00:27:05.531Z,29.30
2019-06-15T00:29:35.118Z,28.90
2019-06-15T00:32:04.929Z,30.50
2019-06-15T00:34:34.526Z,32.00
2019-06-15T00:37:04.888Z,33.10
2019-06-15T00:39:35.489Z,31.80
2019-06-15T00:42:05.184Z,33.90
2019-06-15T00:46:57.007Z,32.70
2019-06-15T00:49:26.607Z,34.50
2019-06-15T00:51:56.154Z,35.70
2019-06-15T00:54:25.685Z,35.80
2019-06-15T00:56:55.526Z,36.50
2019-06-15T00:59:25.095Z,36.00
2019-06-15T01:01:54.984Z,38.20
2019-06-15T01:06:53.678Z,38.70
2019-06-15T01:09:23.274Z,38.50
2019-06-15T01:11:52.819Z,38.40
2019-06-15T01:14:22.524Z,38.40
2019-06-15T01:16:52.047Z,37.30
2019-06-15T01:19:21.601Z,39.00
2019-06-15T01:21:51.143Z,39.00
2019-06-15T01:24:20.694Z,40.00
2019-06-15T01:26:50.517Z,41.40
2019-06-15T01:29:20.067Z,40.80
2019-06-15T01:31:49.673Z,40.80
2019-06-15T01:34:19.229Z,40.00
2019-06-15T01:36:48.833Z,39.70
2019-06-15T01:39:18.421Z,39.30
2019-06-15T01:41:47.998Z,40.00
2019-06-15T01:44:17.615Z,39.50
2019-06-15T01:46:47.689Z,39.20
2019-06-15T01:49:17.325Z,39.80
2019-06-15T01:51:46.902Z,40.20
2019-06-15T01:54:16.595Z,41.00
2019-06-15T01:56:46.457Z,40.80
2019-06-15T01:59:16.009Z,42.00
2019-06-15T02:01:45.898Z,41.50
2019-06-15T02:04:15.677Z,41.70
2019-06-15T02:06:45.483Z,42.30
2019-06-15T02:09:15.055Z,41.40
2019-06-15T02:11:44.721Z,42.40
2019-06-15T02:14:14.342Z,42.80
2019-06-15T02:16:43.873Z,43.80
2019-06-15T02:24:11.793Z,43.80
2019-06-15T02:26:41.329Z,43.90
2019-06-15T02:29:10.945Z,43.60
2019-06-15T02:31:40.554Z,43.60
2019-06-15T02:34:10.180Z,43.60
2019-06-15T02:39:09.140Z,43.80
2019-06-15T02:49:06.276Z,43.10
2019-06-15T02:51:36.209Z,43.40
2019-06-15T02:54:05.834Z,43.90
2019-06-15T02:56:35.614Z,43.90
2019-06-15T02:59:05.230Z,44.00
2019-06-15T03:01:34.852Z,44.30
2019-06-15T03:04:04.478Z,45.10
2019-06-15T03:11:33.979Z,44.50
2019-06-15T03:14:05.268Z,44.70
2019-06-15T03:16:34.886Z,45.70
2019-06-15T03:19:04.776Z,45.50
2019-06-15T03:21:34.304Z,45.90
2019-06-15T03:24:04.088Z,46.40
2019-06-15T03:26:33.724Z,45.90
2019-06-15T03:29:03.266Z,46.50
2019-06-15T03:31:33.066Z,46.80
2019-06-15T03:34:02.708Z,46.60
2019-06-15T03:36:32.299Z,46.00
2019-06-15T03:41:30.951Z,46.10
2019-06-15T03:44:00.545Z,45.70
2019-06-15T03:46:30.144Z,46.10
2019-06-15T03:48:59.660Z,45.80
2019-06-15T03:51:29.233Z,46.30
2019-06-15T03:53:58.748Z,46.30
2019-06-15T03:56:28.493Z,46.00
2019-06-15T04:01:38.935Z,45.60
2019-06-15T04:04:08.533Z,45.30
2019-06-15T04:06:38.159Z,45.50
2019-06-15T04:09:08.203Z,45.90
2019-06-15T04:11:37.774Z,45.90
2019-06-15T04:16:37.031Z,45.70
2019-06-15T04:24:04.987Z,45.40
2019-06-15T04:26:36.378Z,45.20
2019-06-15T04:29:06.208Z,45.00
2019-06-15T04:31:35.837Z,44.80
2019-06-15T04:34:05.396Z,44.50
2019-06-15T04:36:35.008Z,45.10
2019-06-15T04:39:06.512Z,45.20
2019-06-15T04:44:05.553Z,45.80
2019-06-15T04:49:04.693Z,45.60
2019-06-15T04:51:34.311Z,45.30
2019-06-15T04:54:04.084Z,45.60
2019-06-15T04:56:33.708Z,45.30
2019-06-15T04:59:03.230Z,44.90
2019-06-15T05:01:32.931Z,45.80
2019-06-15T05:04:02.535Z,45.40
2019-06-15T05:06:33.802Z,45.50
2019-06-15T05:09:04.863Z,45.60
2019-06-15T05:11:34.635Z,45.00
2019-06-15T05:16:33.321Z,44.60
2019-06-15T05:19:02.853Z,44.20
2019-06-15T05:21:32.552Z,44.10
2019-06-15T05:24:02.136Z,43.80
2019-06-15T05:26:31.687Z,43.00
2019-06-15T05:29:01.291Z,43.60
2019-06-15T05:31:30.911Z,43.20
2019-06-15T05:36:29.610Z,42.10
2019-06-15T05:38:59.137Z,42.10
2019-06-15T05:43:57.917Z,42.00
2019-06-15T05:46:27.720Z,41.50
2019-06-15T05:48:57.314Z,41.30
2019-06-15T05:51:26.873Z,40.20
2019-06-15T05:56:25.497Z,39.60
2019-06-15T05:58:55.110Z,38.90
2019-06-15T06:01:24.703Z,38.80
2019-06-15T06:06:23.452Z,39.40
2019-06-15T06:08:52.996Z,38.50
2019-06-15T06:11:22.620Z,38.00
2019-06-15T06:13:52.185Z,36.90
2019-06-15T06:16:21.821Z,36.90
2019-06-15T06:18:51.378Z,37.00
2019-06-15T06:21:20.907Z,35.30
2019-06-15T06:23:50.477Z,34.90
2019-06-15T06:26:20.101Z,34.00
2019-06-15T06:28:57.235Z,34.80
2019-06-15T06:31:20.942Z,34.40
2019-06-15T06:33:50.509Z,34.60
2019-06-15T06:38:49.201Z,35.80
2019-06-15T06:41:18.778Z,36.20
2019-06-15T06:43:48.463Z,36.20
2019-06-15T06:46:17.993Z,36.20
2019-06-15T06:48:47.610Z,36.40
2019-06-15T06:51:17.131Z,36.30
2019-06-15T06:53:46.680Z,35.80
2019-06-15T06:56:16.214Z,35.80
2019-06-15T06:58:45.856Z,35.70
2019-06-15T07:01:15.438Z,34.40
2019-06-15T07:03:45.146Z,34.80
2019-06-15T07:06:14.750Z,34.10
2019-06-15T07:08:44.362Z,34.50
2019-06-15T07:11:13.966Z,34.80
2019-06-15T07:13:43.509Z,33.50
2019-06-15T07:18:42.277Z,33.40
2019-06-15T07:21:11.825Z,33.50
2019-06-15T07:23:41.379Z,33.10
2019-06-15T07:26:10.994Z,33.70
2019-06-15T07:28:40.626Z,33.30
2019-06-15T07:31:10.243Z,33.10
2019-06-15T07:33:39.808Z,33.10
2019-06-15T07:36:09.420Z,32.90
2019-06-15T07:38:39.146Z,33.00
2019-06-15T07:41:08.758Z,33.00
2019-06-15T07:43:38.306Z,32.80
2019-06-15T07:46:08.739Z,32.30
2019-06-15T07:48:38.369Z,32.20
2019-06-15T07:51:07.893Z,32.40
2019-06-15T07:53:37.550Z,32.30
2019-06-15T07:56:07.416Z,32.30
2019-06-15T08:01:06.302Z,32.50
2019-06-15T08:06:05.373Z,34.30
2019-06-15T08:08:35.025Z,35.10
2019-06-15T08:11:04.705Z,36.00
2019-06-15T08:13:34.416Z,37.30
2019-06-15T08:16:04.349Z,38.30
2019-06-15T08:18:33.939Z,37.30
2019-06-15T08:21:03.606Z,38.90
2019-06-15T08:23:33.157Z,38.90
2019-06-15T08:26:02.841Z,39.70
2019-06-15T08:31:03.316Z,40.10
2019-06-15T08:36:02.494Z,40.80
2019-06-15T08:38:32.199Z,40.90
2019-06-15T08:41:01.980Z,40.90
2019-06-15T08:43:31.522Z,41.10
2019-06-15T08:50:59.436Z,40.90
2019-06-15T08:56:22.816Z,40.80
2019-06-15T08:58:55.478Z,40.50
2019-06-15T09:03:52.817Z,38.40
2019-06-15T09:06:22.554Z,37.20
2019-06-15T09:08:52.087Z,36.60
2019-06-15T09:11:21.776Z,35.00
2019-06-15T09:13:51.300Z,34.40
2019-06-15T09:16:21.694Z,33.20
2019-06-15T09:18:51.289Z,32.60
2019-06-15T09:23:50.118Z,32.90
2019-06-15T09:26:20.288Z,32.50
2019-06-15T09:28:49.887Z,32.30
2019-06-15T09:31:19.521Z,32.50
2019-06-15T09:33:49.185Z,32.10
2019-06-15T09:36:18.955Z,31.10
2019-06-15T09:38:48.568Z,30.30
2019-06-15T09:43:47.267Z,28.40
2019-06-15T09:46:16.886Z,27.90
2019-06-15T09:51:35.042Z,27.50
2019-06-15T10:06:30.510Z,27.50
2019-06-15T10:09:00.224Z,27.10
2019-06-15T10:11:29.826Z,27.70
2019-06-15T10:16:28.518Z,29.10
2019-06-15T10:18:58.088Z,30.00
2019-06-15T10:21:27.655Z,31.10
2019-06-15T10:26:26.402Z,33.10
2019-06-15T10:31:25.007Z,34.50
2019-06-15T10:33:54.532Z,35.10
2019-06-15T10:36:24.267Z,35.60
2019-06-15T10:38:53.909Z,34.80
2019-06-15T10:41:24.104Z,34.60
2019-06-15T10:46:22.738Z,33.90
2019-06-15T10:48:55.573Z,32.40
2019-06-15T10:51:23.636Z,30.40
2019-06-15T10:53:53.207Z,28.40
2019-06-15T10:56:22.745Z,27.70
2019-06-15T10:58:53.298Z,26.50
2019-06-15T11:01:22.824Z,26.50
2019-06-15T11:08:50.887Z,28.10
2019-06-15T11:11:22.207Z,27.90
2019-06-15T11:13:52.818Z,26.80
2019-06-15T11:23:49.844Z,24.90
2019-06-15T11:26:19.498Z,24.50
2019-06-15T11:31:18.291Z,23.20
2019-06-15T11:33:47.940Z,22.90
2019-06-15T11:36:17.609Z,22.90
2019-06-15T11:41:16.567Z,22.90
2019-06-15T11:44:05.512Z,22.80
2019-06-15T11:46:35.562Z,23.00
2019-06-15T11:49:05.231Z,22.60
2019-06-15T11:51:34.842Z,22.60
2019-06-15T11:59:02.800Z,21.20
2019-06-15T12:01:32.469Z,21.20
2019-06-15T12:04:02.068Z,20.90
2019-06-15T12:06:31.621Z,20.60
2019-06-15T12:09:01.232Z,20.60
2019-06-15T12:11:30.783Z,20.20
2019-06-15T12:14:00.440Z,20.60
2019-06-15T12:16:30.704Z,20.10
2019-06-15T12:21:29.692Z,17.60
2019-06-15T12:23:59.833Z,18.40
2019-06-15T12:26:29.465Z,18.60
2019-06-15T12:28:59.073Z,19.50
2019-06-15T12:33:57.831Z,21.50
2019-06-15T12:38:56.667Z,20.10
2019-06-15T12:41:26.262Z,17.50
2019-06-15T12:43:55.808Z,16.20
2019-06-15T12:48:54.760Z,15.60
2019-06-15T12:51:24.352Z,16.80
2019-06-15T12:53:54.039Z,18.30
2019-06-15T12:56:23.582Z,16.70
2019-06-15T12:58:53.242Z,13.20
2019-06-15T13:01:22.931Z,11.90
2019-06-15T13:06:21.677Z,13.60
2019-06-15T13:08:51.263Z,12.40
2019-06-15T13:11:20.882Z,7.80
2019-06-15T13:13:50.411Z,6.50
2019-06-15T13:16:20.170Z,4.50
2019-06-15T13:18:49.747Z,3.70
2019-06-15T13:21:19.635Z,1.20
2019-06-15T13:23:49.187Z,2.00
2019-06-15T13:26:18.799Z,3.90
2019-06-15T13:28:51.038Z,4.50
2019-06-15T13:31:19.549Z,4.10
2019-06-15T13:33:49.265Z,4.90
2019-06-15T13:36:18.872Z,5.30
2019-06-15T13:38:48.460Z,6.50
2019-06-15T13:41:18.117Z,7.60
2019-06-15T13:43:47.861Z,8.60
2019-06-15T13:46:17.651Z,7.10
2019-06-15T13:48:47.346Z,6.10
2019-06-15T13:51:17.010Z,5.00
2019-06-15T13:53:46.574Z,4.50
2019-06-15T13:56:16.107Z,5.50
2019-06-15T13:58:45.610Z,4.70
2019-06-15T14:01:15.183Z,6.00
2019-06-15T14:06:42.581Z,3.80
2019-06-15T14:09:12.183Z,2.10
2019-06-15T14:11:41.796Z,1.00
2019-06-15T14:14:11.469Z,1.00
2019-06-15T14:16:41.077Z,1.00
2019-06-15T14:19:10.587Z,1.00
2019-06-15T14:21:40.133Z,1.00
2019-06-15T14:24:09.705Z,2.10
2019-06-15T14:26:39.431Z,1.20
2019-06-15T14:29:09.025Z,1.00
2019-06-15T14:31:49.711Z,1.00
2019-06-15T14:34:09.961Z,1.00
2019-06-15T14:36:39.693Z,1.00
2019-06-15T14:39:09.845Z,1.00
2019-06-15T14:41:39.679Z,1.00
2019-06-15T14:44:09.846Z,1.00
2019-06-15T14:46:39.788Z,1.00
2019-06-15T14:49:09.871Z,1.00
2019-06-15T14:51:39.713Z,1.00
2019-06-15T14:54:09.235Z,1.00
2019-06-15T14:56:38.811Z,1.00
2019-06-15T14:59:08.323Z,1.00
2019-06-15T15:01:38.082Z,1.00
2019-06-15T15:04:07.727Z,1.00
2019-06-15T15:06:37.275Z,1.00
2019-06-15T15:09:07.535Z,1.00
2019-06-15T15:11:37.235Z,1.00
2019-06-15T15:14:06.838Z,1.00
2019-06-15T15:16:36.437Z,1.00
2019-06-15T15:19:06.159Z,1.00
2019-06-15T15:21:37.132Z,1.00
2019-06-15T15:24:06.873Z,1.00
2019-06-15T15:26:37.131Z,1.00
2019-06-15T15:29:07.431Z,1.00
2019-06-15T15:31:37.227Z,1.00
2019-06-15T15:34:07.898Z,1.00
2019-06-15T15:36:37.967Z,1.00
2019-06-15T15:39:27.471Z,1.00
2019-06-15T15:41:57.059Z,1.00
2019-06-15T15:44:27.008Z,1.00
2019-06-15T15:46:57.151Z,1.00
2019-06-15T15:49:27.000Z,1.00
2019-06-15T15:51:56.860Z,1.00
2019-06-15T15:54:27.102Z,1.00
2019-06-15T15:56:56.898Z,1.00
2019-06-15T15:59:27.017Z,1.00
2019-06-15T16:01:57.120Z,1.00
2019-06-15T16:04:27.300Z,1.00
2019-06-15T16:06:56.826Z,1.00
2019-06-15T16:09:27.434Z,1.00
2019-06-15T16:11:57.674Z,1.00
2019-06-15T16:14:27.301Z,1.00
2019-06-15T16:16:57.154Z,1.00
2019-06-15T16:19:27.335Z,1.00
2019-06-15T16:21:57.128Z,1.00
2019-06-15T16:24:27.483Z,1.00
2019-06-15T16:26:57.695Z,1.00
2019-06-15T16:29:28.277Z,1.00
2019-06-15T16:31:58.309Z,1.00
2019-06-15T16:34:27.933Z,1.00
2019-06-15T16:36:57.585Z,1.00
2019-06-15T16:39:27.267Z,1.00
2019-06-15T16:41:56.778Z,1.00
2019-06-15T16:44:26.388Z,1.00
2019-06-15T16:46:56.652Z,1.00
2019-06-15T16:49:26.875Z,1.00
2019-06-15T16:51:56.612Z,1.90
2019-06-15T16:54:27.041Z,3.20
2019-06-15T16:56:56.821Z,3.30
2019-06-15T16:59:26.415Z,1.10
2019-06-15T17:01:56.121Z,1.00
2019-06-15T17:04:26.795Z,1.00
2019-06-15T17:06:56.721Z,1.00
2019-06-15T17:09:27.637Z,1.00
2019-06-15T17:11:57.519Z,1.00
2019-06-15T17:14:27.267Z,1.00
2019-06-15T17:16:56.822Z,1.00
2019-06-15T17:19:26.950Z,1.00
2019-06-15T17:22:01.050Z,1.00
2019-06-15T17:24:27.984Z,1.00
2019-06-15T17:26:57.499Z,1.00
2019-06-15T17:29:27.081Z,1.00
2019-06-15T17:31:57.081Z,1.00
2019-06-15T17:34:26.671Z,1.00
2019-06-15T17:36:57.476Z,1.00
2019-06-15T17:39:29.718Z,1.00
2019-06-15T17:41:58.625Z,1.00
2019-06-15T17:44:28.173Z,1.00
2019-06-15T17:46:57.798Z,1.00
2019-06-15T17:49:27.373Z,1.00
2019-06-15T17:51:56.977Z,1.00
2019-06-15T17:54:27.331Z,1.00
2019-06-15T17:56:57.129Z,1.00
2019-06-15T17:59:26.809Z,1.00
2019-06-15T18:01:56.471Z,1.00
2019-06-15T18:04:25.980Z,1.00
2019-06-15T18:06:56.745Z,1.00
2019-06-15T18:09:26.451Z,1.00
2019-06-15T18:11:57.137Z,1.00
2019-06-15T18:14:26.773Z,1.00
2019-06-15T18:16:58.298Z,1.00
2019-06-15T18:19:27.604Z,1.00
2019-06-15T18:21:57.233Z,1.00
2019-06-15T18:24:26.824Z,1.00
2019-06-15T18:26:56.627Z,1.00
2019-06-15T18:29:26.516Z,1.30
2019-06-15T18:31:56.648Z,3.10
2019-06-15T18:34:26.358Z,5.60
2019-06-15T18:36:56.231Z,8.30
2019-06-15T18:39:26.406Z,10.00
2019-06-15T18:41:56.165Z,10.60
2019-06-15T18:44:26.887Z,12.40
2019-06-15T18:46:56.716Z,13.50
2019-06-15T18:49:26.827Z,12.90
2019-06-15T18:51:56.806Z,15.80
2019-06-15T18:54:26.628Z,16.80
2019-06-15T18:56:56.710Z,17.70
2019-06-15T18:59:26.276Z,17.20
2019-06-15T19:01:56.273Z,17.70
2019-06-15T19:04:30.614Z,16.80
2019-06-15T19:06:57.171Z,16.20
2019-06-15T19:09:26.881Z,13.70
2019-06-15T19:11:56.744Z,14.60
2019-06-15T19:14:27.101Z,16.30
2019-06-15T19:16:56.895Z,15.60
2019-06-15T19:19:26.664Z,16.10
2019-06-15T19:21:57.120Z,17.80
2019-06-15T19:24:26.917Z,18.20
2019-06-15T19:26:58.307Z,18.90
2019-06-15T19:29:27.917Z,18.50
2019-06-15T19:36:57.798Z,20.30
2019-06-15T19:39:27.454Z,20.70
2019-06-15T19:41:56.998Z,21.50
2019-06-15T19:44:26.860Z,20.30
2019-06-15T19:47:00.055Z,21.90
2019-06-15T19:49:28.026Z,21.60
2019-06-15T19:51:57.726Z,21.60
2019-06-15T19:54:27.269Z,21.10
2019-06-15T19:56:57.022Z,22.60
2019-06-15T19:59:26.592Z,22.80
2019-06-15T20:01:56.174Z,23.70
2019-06-15T20:04:27.030Z,22.60
2019-06-15T20:09:26.361Z,23.40
2019-06-15T20:11:56.050Z,23.20
2019-06-15T20:14:25.592Z,23.70
2019-06-15T20:16:56.112Z,23.90
2019-06-15T20:19:26.559Z,23.30
2019-06-15T20:22:00.628Z,25.40
2019-06-15T20:24:28.263Z,24.70
2019-06-15T20:26:58.545Z,27.10
2019-06-15T20:29:28.444Z,25.00
2019-06-15T20:31:58.066Z,25.10
2019-06-15T20:34:27.660Z,25.00
2019-06-15T20:36:57.563Z,25.50
2019-06-15T20:39:27.181Z,25.70
2019-06-15T20:41:56.730Z,26.00
2019-06-15T20:46:57.064Z,25.90
2019-06-15T20:49:26.836Z,25.50
2019-06-15T20:51:56.340Z,26.50
2019-06-15T20:54:25.906Z,26.40
2019-06-15T20:56:56.946Z,25.50
2019-06-15T20:59:26.637Z,26.40
2019-06-15T21:01:56.362Z,26.80
2019-06-15T21:04:26.682Z,26.80
2019-06-15T21:06:56.415Z,26.70
2019-06-15T21:09:27.512Z,25.80
2019-06-15T21:11:57.379Z,26.80
2019-06-15T21:14:27.401Z,27.00
2019-06-15T21:16:56.988Z,26.90
2019-06-15T21:19:26.538Z,26.40
2019-06-15T21:21:56.688Z,26.50
2019-06-15T21:24:26.491Z,27.50
2019-06-15T21:29:26.418Z,27.30
2019-06-15T21:31:56.897Z,26.70
2019-06-15T21:34:26.730Z,27.50
2019-06-15T21:36:56.742Z,27.50
2019-06-15T21:39:26.657Z,27.50
2019-06-15T21:41:56.865Z,27.60
2019-06-15T21:44:26.649Z,27.60
2019-06-15T21:46:56.360Z,27.30
2019-06-15T21:49:26.487Z,27.70
2019-06-15T21:51:56.534Z,27.80
2019-06-15T21:54:26.731Z,27.50
2019-06-15T21:56:56.726Z,28.00
2019-06-15T21:59:26.580Z,27.50
2019-06-15T22:01:56.233Z,27.70
2019-06-15T22:04:25.996Z,27.30
2019-06-15T22:06:56.444Z,27.90
2019-06-15T22:09:26.543Z,27.90
2019-06-15T22:11:56.283Z,27.40
2019-06-15T22:14:26.571Z,27.60
2019-06-15T22:16:56.901Z,27.80
2019-06-15T22:19:26.690Z,27.30
2019-06-15T22:21:56.211Z,28.20
2019-06-15T22:24:26.776Z,27.50
2019-06-15T22:26:57.365Z,27.90
2019-06-15T22:29:27.500Z,27.80
2019-06-15T22:31:57.154Z,28.50
2019-06-15T22:34:26.787Z,28.20
2019-06-15T22:36:57.105Z,29.10
2019-06-15T22:39:26.961Z,28.70
2019-06-15T22:41:56.702Z,29.00
2019-06-15T22:44:27.777Z,28.60
2019-06-15T22:46:57.537Z,28.70
2019-06-15T22:49:27.169Z,28.20
2019-06-15T22:51:56.949Z,27.80
2019-06-15T22:54:26.648Z,27.90
2019-06-15T22:56:56.669Z,27.60
2019-06-15T22:59:26.355Z,28.30
2019-06-15T23:01:57.489Z,28.70
2019-06-15T23:04:27.195Z,28.60
2019-06-15T23:06:56.817Z,28.60
2019-06-15T23:09:26.434Z,28.50
2019-06-15T23:11:56.546Z,29.20
2019-06-15T23:14:26.319Z,28.70
2019-06-15T23:16:56.722Z,29.10
2019-06-15T23:19:26.465Z,29.20
2019-06-15T23:21:57.248Z,29.20
2019-06-15T23:24:27.316Z,29.40
2019-06-15T23:26:57.200Z,29.80
2019-06-15T23:29:27.201Z,28.90
2019-06-15T23:31:57.343Z,29.90
2019-06-15T23:34:39.547Z,30.30
2019-06-15T23:37:15.722Z,30.00
2019-06-15T23:39:46.673Z,30.00
2019-06-15T23:42:16.546Z,30.00
2019-06-15T23:44:46.584Z,29.40
2019-06-15T23:47:17.054Z,30.00
2019-06-15T23:49:46.769Z,30.00
2019-06-15T23:52:16.308Z,29.60
2019-06-15T23:54:46.437Z,30.00
2019-06-15T23:57:16.127Z,29.80
2019-06-15T23:59:46.538Z,29.60
